createdAt,value
2023-05-21T00:00:15.373Z,17.21
2023-05-21T00:04:20.372Z,17.17
2023-05-21T00:08:23.936Z,17.05
2023-05-21T00:12:28.281Z,16.96
2023-05-21T00:16:31.665Z,16.90
2023-05-21T00:20:37.282Z,16.84
2023-05-21T00:24:41.001Z,16.83
2023-05-21T00:28:44.236Z,16.78
2023-05-21T00:32:47.900Z,16.80
2023-05-21T00:36:55.413Z,16.79
2023-05-21T00:40:58.502Z,16.70
2023-05-21T00:45:03.989Z,16.69
2023-05-21T00:49:08.912Z,16.68
2023-05-21T00:53:15.399Z,16.61
2023-05-21T00:57:21.197Z,16.58
2023-05-21T01:01:25.831Z,16.52
2023-05-21T01:05:29.360Z,16.45
2023-05-21T01:09:34.621Z,16.37
2023-05-21T01:13:40.993Z,16.27
2023-05-21T01:17:46.078Z,16.22
2023-05-21T01:21:53.838Z,16.15
2023-05-21T01:25:58.348Z,16.07
2023-05-21T01:30:03.428Z,16.03
2023-05-21T01:34:13.196Z,15.99
2023-05-21T01:38:23.710Z,15.94
2023-05-21T01:42:33.330Z,15.88
2023-05-21T01:46:37.044Z,15.87
2023-05-21T01:50:41.618Z,15.78
2023-05-21T01:54:44.488Z,15.73
2023-05-21T01:58:50.278Z,15.65
2023-05-21T02:02:54.232Z,15.62
2023-05-21T02:06:57.067Z,15.56
2023-05-21T02:11:00.287Z,15.54
2023-05-21T02:15:06.098Z,15.50
2023-05-21T02:19:10.492Z,15.44
2023-05-21T02:23:14.006Z,15.37
2023-05-21T02:27:18.287Z,15.30
2023-05-21T02:31:23.200Z,15.26
2023-05-21T02:35:26.501Z,15.20
2023-05-21T02:39:29.840Z,15.17
2023-05-21T02:43:32.930Z,15.10
2023-05-21T02:47:39.118Z,15.05
2023-05-21T02:51:43.822Z,15.02
2023-05-21T02:55:47.496Z,15.00
2023-05-21T02:59:50.491Z,14.98
2023-05-21T03:03:57.576Z,14.92
2023-05-21T03:08:00.799Z,14.88
2023-05-21T03:12:05.843Z,14.84
2023-05-21T03:16:09.255Z,14.82
2023-05-21T03:20:19.048Z,14.81
2023-05-21T03:24:22.210Z,14.75
2023-05-21T03:28:25.784Z,14.73
2023-05-21T03:32:29.058Z,14.72
2023-05-21T03:36:34.038Z,14.70
2023-05-21T03:40:39.271Z,14.65
2023-05-21T03:44:42.287Z,14.62
2023-05-21T03:49:15.371Z,14.62
2023-05-21T03:53:20.534Z,14.64
2023-05-21T03:57:24.221Z,14.65
2023-05-21T04:01:28.658Z,14.66
2023-05-21T04:05:33.730Z,14.66
2023-05-21T04:09:39.507Z,14.66
2023-05-21T04:13:42.586Z,14.65
2023-05-21T04:17:46.571Z,14.68
2023-05-21T04:21:50.035Z,14.70
2023-05-21T04:25:57.087Z,14.68
2023-05-21T04:30:00.292Z,14.72
2023-05-21T04:34:03.906Z,14.73
2023-05-21T04:38:08.546Z,14.79
2023-05-21T04:42:14.465Z,14.86
2023-05-21T04:46:18.090Z,14.83
2023-05-21T04:50:21.856Z,14.91
2023-05-21T04:54:25.002Z,14.93
2023-05-21T04:58:29.887Z,14.98
2023-05-21T05:02:34.268Z,15.02
2023-05-21T05:06:37.670Z,15.06
2023-05-21T05:10:41.402Z,15.07
2023-05-21T05:14:46.056Z,15.06
2023-05-21T05:18:52.459Z,15.09
2023-05-21T05:22:56.928Z,15.15
2023-05-21T05:27:00.363Z,15.19
2023-05-21T05:31:11.629Z,15.26
2023-05-21T05:35:15.188Z,15.35
2023-05-21T05:39:18.703Z,15.41
2023-05-21T05:43:23.089Z,15.47
2023-05-21T05:47:28.100Z,15.59
2023-05-21T05:51:31.629Z,15.69
2023-05-21T05:55:36.857Z,15.74
2023-05-21T05:59:40.912Z,15.78
2023-05-21T06:03:46.387Z,15.89
2023-05-21T06:07:52.141Z,15.95
2023-05-21T06:11:57.237Z,15.90
2023-05-21T06:16:00.634Z,16.00
2023-05-21T06:20:06.572Z,16.06
2023-05-21T06:24:11.404Z,16.11
2023-05-21T06:28:14.488Z,16.21
2023-05-21T06:32:23.057Z,16.25
2023-05-21T06:36:30.221Z,16.29
2023-05-21T06:40:34.140Z,16.32
2023-05-21T06:44:45.947Z,16.46
2023-05-21T06:49:15.071Z,16.65
2023-05-21T06:53:20.680Z,16.89
2023-05-21T06:57:49.886Z,17.16
2023-05-21T07:01:52.828Z,17.42
2023-05-21T07:05:56.008Z,17.50
2023-05-21T07:10:00.526Z,17.67
2023-05-21T07:14:06.487Z,17.74
2023-05-21T07:18:12.157Z,17.89
2023-05-21T07:22:15.530Z,17.79
2023-05-21T07:26:19.938Z,17.96
2023-05-21T07:30:23.724Z,18.18
2023-05-21T07:34:26.954Z,18.52
2023-05-21T07:38:30.603Z,18.81
2023-05-21T07:42:35.018Z,19.04
2023-05-21T07:46:38.824Z,19.18
2023-05-21T07:50:41.701Z,19.50
2023-05-21T07:54:44.696Z,19.54
2023-05-21T07:58:48.867Z,19.86
2023-05-21T08:02:53.383Z,20.17
2023-05-21T08:06:56.674Z,20.31
2023-05-21T08:11:00.458Z,20.33
2023-05-21T08:15:06.061Z,19.98
2023-05-21T08:19:14.049Z,19.96
2023-05-21T08:23:21.929Z,20.08
2023-05-21T08:27:30.161Z,20.13
2023-05-21T08:31:35.842Z,20.25
2023-05-21T08:35:41.131Z,20.51
2023-05-21T08:40:13.259Z,20.65
2023-05-21T08:44:34.403Z,20.68
2023-05-21T08:48:39.420Z,20.67
2023-05-21T08:52:43.353Z,20.68
2023-05-21T08:56:49.530Z,20.82
2023-05-21T09:00:56.043Z,21.04
2023-05-21T09:05:04.826Z,21.18
2023-05-21T09:09:16.002Z,21.29
2023-05-21T09:13:26.493Z,21.39
2023-05-21T09:17:40.920Z,21.53
2023-05-21T09:22:24.281Z,21.66
2023-05-21T09:26:29.058Z,21.90
2023-05-21T09:30:36.765Z,21.98
2023-05-21T09:34:40.043Z,22.28
2023-05-21T09:38:46.293Z,22.31
2023-05-21T09:42:50.460Z,22.60
2023-05-21T09:46:58.685Z,22.98
2023-05-21T09:51:12.400Z,23.37
2023-05-21T09:55:18.188Z,23.73
2023-05-21T09:59:40.815Z,23.81
2023-05-21T10:03:50.583Z,24.15
2023-05-21T10:08:01.964Z,24.35
2023-05-21T10:12:15.642Z,24.57
2023-05-21T10:16:19.752Z,24.68
2023-05-21T10:20:23.632Z,25.07
2023-05-21T10:24:31.153Z,25.39
2023-05-21T10:28:38.736Z,25.57
2023-05-21T10:32:42.867Z,25.74
2023-05-21T10:36:49.861Z,25.98
2023-05-21T10:40:54.611Z,26.02
2023-05-21T10:45:09.378Z,26.08
2023-05-21T10:49:28.192Z,26.37
2023-05-21T10:53:44.630Z,26.42
2023-05-21T10:58:21.188Z,26.25
2023-05-21T11:02:38.000Z,26.26
2023-05-21T11:06:53.016Z,26.45
2023-05-21T11:10:59.084Z,26.51
2023-05-21T11:15:08.266Z,26.43
2023-05-21T11:19:19.090Z,26.59
2023-05-21T11:23:22.555Z,26.49
2023-05-21T11:27:36.984Z,26.20
2023-05-21T11:31:40.227Z,26.36
2023-05-21T11:35:59.274Z,26.44
2023-05-21T11:40:25.937Z,26.46
2023-05-21T11:44:44.137Z,26.22
2023-05-21T11:48:47.820Z,26.06
2023-05-21T11:52:53.113Z,26.05
2023-05-21T11:56:56.659Z,26.25
2023-05-21T12:01:01.455Z,26.42
2023-05-21T12:05:06.466Z,26.52
2023-05-21T12:09:12.619Z,26.71
2023-05-21T12:13:16.127Z,26.62
2023-05-21T12:17:21.073Z,26.77
2023-05-21T12:21:25.368Z,26.60
2023-05-21T12:25:32.020Z,26.62
2023-05-21T12:29:35.864Z,26.66
2023-05-21T12:33:38.868Z,26.92
2023-05-21T12:37:44.691Z,27.25
2023-05-21T12:41:54.507Z,27.54
2023-05-21T12:45:58.045Z,27.66
2023-05-21T12:50:02.779Z,27.71
2023-05-21T12:54:13.161Z,27.82
2023-05-21T12:58:23.013Z,27.89
2023-05-21T13:02:29.238Z,28.05
2023-05-21T13:06:44.147Z,28.09
2023-05-21T13:10:47.291Z,27.99
2023-05-21T13:14:54.972Z,28.05
2023-05-21T13:18:57.977Z,27.99
2023-05-21T13:23:02.132Z,28.05
2023-05-21T13:27:06.689Z,28.05
2023-05-21T13:31:15.545Z,28.37
2023-05-21T13:35:20.655Z,28.43
2023-05-21T13:39:27.693Z,28.51
2023-05-21T13:43:30.456Z,28.54
2023-05-21T13:47:40.377Z,28.45
2023-05-21T13:52:03.463Z,28.27
2023-05-21T13:56:21.171Z,28.21
2023-05-21T14:00:25.552Z,28.14
2023-05-21T14:04:30.368Z,28.05
2023-05-21T14:08:33.199Z,27.85
2023-05-21T14:12:36.550Z,27.69
2023-05-21T14:16:40.091Z,27.65
2023-05-21T14:20:45.070Z,27.64
2023-05-21T14:24:48.215Z,27.71
2023-05-21T14:28:51.983Z,27.78
2023-05-21T14:32:57.913Z,27.77
2023-05-21T14:37:03.411Z,27.74
2023-05-21T14:41:12.000Z,27.67
2023-05-21T14:45:19.045Z,27.47
2023-05-21T14:49:34.506Z,27.50
2023-05-21T14:53:38.823Z,27.48
2023-05-21T14:57:42.310Z,27.47
2023-05-21T15:01:45.133Z,27.48
2023-05-21T15:05:47.982Z,27.33
2023-05-21T15:09:52.143Z,27.23
2023-05-21T15:13:55.201Z,27.26
2023-05-21T15:18:01.191Z,27.35
2023-05-21T15:22:04.109Z,27.38
2023-05-21T15:26:09.714Z,27.48
2023-05-21T15:30:13.523Z,27.60
2023-05-21T15:34:22.585Z,27.73
2023-05-21T15:38:25.667Z,27.63
2023-05-21T15:42:31.595Z,27.58
2023-05-21T15:46:34.553Z,27.53
2023-05-21T15:50:38.056Z,27.44
2023-05-21T15:54:40.878Z,27.40
2023-05-21T15:58:45.772Z,27.32
2023-05-21T16:02:48.652Z,27.21
2023-05-21T16:06:51.767Z,27.22
2023-05-21T16:10:54.706Z,27.18
2023-05-21T16:14:59.674Z,27.02
2023-05-21T16:19:02.796Z,26.90
2023-05-21T16:23:06.865Z,26.83
2023-05-21T16:27:10.022Z,26.85
2023-05-21T16:31:14.645Z,26.74
2023-05-21T16:35:31.051Z,26.58
2023-05-21T16:39:42.435Z,26.37
2023-05-21T16:43:45.222Z,26.33
2023-05-21T16:47:50.278Z,26.28
2023-05-21T16:51:53.600Z,26.16
2023-05-21T16:55:56.488Z,26.04
2023-05-21T16:59:59.662Z,26.02
2023-05-21T17:04:04.470Z,25.99
2023-05-21T17:08:14.426Z,25.96
2023-05-21T17:12:17.888Z,25.81
2023-05-21T17:16:20.908Z,25.78
2023-05-21T17:20:33.428Z,25.73
2023-05-21T17:24:36.314Z,25.64
2023-05-21T17:28:56.212Z,25.49
2023-05-21T17:33:14.016Z,25.44
2023-05-21T17:37:24.436Z,25.27
2023-05-21T17:41:28.176Z,25.21
2023-05-21T17:45:30.952Z,25.16
2023-05-21T17:49:34.474Z,25.12
2023-05-21T17:53:39.033Z,25.11
2023-05-21T17:57:42.420Z,25.06
2023-05-21T18:01:52.722Z,25.01
2023-05-21T18:06:20.409Z,24.89
2023-05-21T18:10:24.576Z,24.73
2023-05-21T18:14:27.994Z,24.67
2023-05-21T18:18:31.069Z,24.54
2023-05-21T18:22:36.658Z,24.44
2023-05-21T18:26:52.850Z,24.34
2023-05-21T18:31:00.692Z,24.23
2023-05-21T18:35:03.705Z,24.15
2023-05-21T18:39:07.548Z,24.12
2023-05-21T18:43:13.817Z,24.08
2023-05-21T18:47:16.629Z,23.99
2023-05-21T18:51:19.699Z,23.86
2023-05-21T18:55:23.839Z,23.78
2023-05-21T18:59:29.448Z,23.70
2023-05-21T19:03:33.109Z,23.58
2023-05-21T19:07:47.377Z,23.44
2023-05-21T19:11:51.490Z,23.26
2023-05-21T19:16:04.260Z,23.07
2023-05-21T19:20:24.266Z,23.00
2023-05-21T19:24:27.539Z,22.96
2023-05-21T19:28:30.570Z,22.79
2023-05-21T19:32:35.363Z,22.76
2023-05-21T19:36:52.434Z,22.73
2023-05-21T19:41:02.272Z,22.68
2023-05-21T19:45:09.460Z,22.58
2023-05-21T19:49:15.825Z,22.55
2023-05-21T19:53:18.948Z,22.53
2023-05-21T19:57:23.444Z,22.48
2023-05-21T20:01:40.163Z,22.42
2023-05-21T20:06:04.541Z,22.36
2023-05-21T20:10:22.631Z,22.31
2023-05-21T20:14:25.547Z,22.28
2023-05-21T20:18:28.863Z,22.24
2023-05-21T20:22:33.486Z,22.19
2023-05-21T20:26:36.659Z,22.16
2023-05-21T20:30:53.567Z,22.12
2023-05-21T20:35:03.452Z,22.02
2023-05-21T20:39:09.234Z,21.96
2023-05-21T20:43:13.753Z,21.88
2023-05-21T20:47:16.879Z,21.83
2023-05-21T20:51:19.889Z,21.76
2023-05-21T20:55:25.926Z,21.73
2023-05-21T20:59:30.692Z,21.72
2023-05-21T21:03:34.763Z,21.71
2023-05-21T21:07:38.849Z,21.66
2023-05-21T21:11:43.216Z,21.50
2023-05-21T21:15:46.577Z,21.33
2023-05-21T21:19:52.758Z,21.23
2023-05-21T21:23:56.106Z,21.20
2023-05-21T21:28:00.485Z,21.12
2023-05-21T21:32:04.041Z,21.16
2023-05-21T21:36:07.696Z,21.18
2023-05-21T21:40:11.744Z,21.16
2023-05-21T21:44:16.034Z,21.14
2023-05-21T21:48:19.044Z,21.22
2023-05-21T21:52:22.348Z,21.23
2023-05-21T21:56:26.133Z,21.30
2023-05-21T22:00:31.548Z,21.33
2023-05-21T22:04:34.401Z,21.29
2023-05-21T22:08:37.632Z,21.26
2023-05-21T22:12:41.387Z,21.17
2023-05-21T22:16:47.412Z,21.06
2023-05-21T22:20:52.511Z,20.97
2023-05-21T22:24:55.448Z,20.84
2023-05-21T22:28:59.069Z,20.78
2023-05-21T22:33:03.347Z,20.68
2023-05-21T22:37:06.368Z,20.67
2023-05-21T22:41:09.485Z,20.63
2023-05-21T22:45:13.314Z,20.52
2023-05-21T22:49:17.366Z,20.51
2023-05-21T22:53:20.750Z,20.52
2023-05-21T22:57:23.430Z,20.45
2023-05-21T23:01:26.241Z,20.42
2023-05-21T23:05:30.565Z,20.41
2023-05-21T23:09:33.381Z,20.42
2023-05-21T23:13:36.645Z,20.41
2023-05-21T23:17:39.591Z,20.41
2023-05-21T23:21:45.398Z,20.35
2023-05-21T23:25:48.129Z,20.37
2023-05-21T23:29:51.410Z,20.37
2023-05-21T23:33:54.390Z,20.36
2023-05-21T23:37:58.856Z,20.31
2023-05-21T23:42:01.656Z,20.20
2023-05-21T23:46:04.697Z,20.09
2023-05-21T23:50:09.084Z,20.08
2023-05-21T23:54:16.844Z,20.11
2023-05-21T23:58:19.642Z,20.04
